sensor_id;sensor_type;location;lat;lon;timestamp;temperature;humidity
19974;DHT22;10148;47.694;9.442;2022-07-12T00:01:17;16.90;99.90
19974;DHT22;10148;47.694;9.442;2022-07-12T00:03:42;16.80;99.90
19974;DHT22;10148;47.694;9.442;2022-07-12T00:06:08;16.80;99.90
19974;DHT22;10148;47.694;9.442;2022-07-12T00:08:33;16.80;99.90
19974;DHT22;10148;47.694;9.442;2022-07-12T00:10:59;16.80;99.90
19974;DHT22;10148;47.694;9.442;2022-07-12T00:13:24;16.80;99.90
19974;DHT22;10148;47.694;9.442;2022-07-12T00:15:50;16.70;99.90
19974;DHT22;10148;47.694;9.442;2022-07-12T00:18:15;16.70;99.90
19974;DHT22;10148;47.694;9.442;2022-07-12T00:20:41;16.70;99.90
19974;DHT22;10148;47.694;9.442;2022-07-12T00:23:06;16.70;99.90
19974;DHT22;10148;47.694;9.442;2022-07-12T00:25:32;16.60;99.90
19974;DHT22;10148;47.694;9.442;2022-07-12T00:27:57;16.60;99.90
19974;DHT22;10148;47.694;9.442;2022-07-12T00:30:23;16.60;99.90
19974;DHT22;10148;47.694;9.442;2022-07-12T00:32:49;16.60;99.90
19974;DHT22;10148;47.694;9.442;2022-07-12T00:35:15;16.60;99.90
19974;DHT22;10148;47.694;9.442;2022-07-12T00:37:41;16.60;99.90
19974;DHT22;10148;47.694;9.442;2022-07-12T00:40:08;16.50;99.90
19974;DHT22;10148;47.694;9.442;2022-07-12T00:42:38;16.50;99.90
19974;DHT22;10148;47.694;9.442;2022-07-12T00:45:05;16.50;99.90
19974;DHT22;10148;47.694;9.442;2022-07-12T00:47:36;16.50;99.90
19974;DHT22;10148;47.694;9.442;2022-07-12T00:50:14;16.40;99.90
19974;DHT22;10148;47.694;9.442;2022-07-12T00:52:42;16.40;99.90
19974;DHT22;10148;47.694;9.442;2022-07-12T00:55:08;16.40;99.90
19974;DHT22;10148;47.694;9.442;2022-07-12T00:57:35;16.40;99.90
19974;DHT22;10148;47.694;9.442;2022-07-12T01:00:01;16.30;99.90
19974;DHT22;10148;47.694;9.442;2022-07-12T01:02:28;16.30;99.90
19974;DHT22;10148;47.694;9.442;2022-07-12T01:04:54;16.30;99.90
19974;DHT22;10148;47.694;9.442;2022-07-12T01:07:21;16.30;99.90
19974;DHT22;10148;47.694;9.442;2022-07-12T01:09:49;16.30;99.90
19974;DHT22;10148;47.694;9.442;2022-07-12T01:12:16;16.30;99.90
19974;DHT22;10148;47.694;9.442;2022-07-12T01:14:42;16.30;99.90
19974;DHT22;10148;47.694;9.442;2022-07-12T01:17:08;16.30;99.90
19974;DHT22;10148;47.694;9.442;2022-07-12T01:19:34;16.30;99.90
19974;DHT22;10148;47.694;9.442;2022-07-12T01:22:05;16.20;99.90
19974;DHT22;10148;47.694;9.442;2022-07-12T01:24:32;16.20;99.90
19974;DHT22;10148;47.694;9.442;2022-07-12T01:26:57;16.20;99.90
19974;DHT22;10148;47.694;9.442;2022-07-12T01:29:23;16.20;99.90
19974;DHT22;10148;47.694;9.442;2022-07-12T01:31:49;16.20;99.90
19974;DHT22;10148;47.694;9.442;2022-07-12T01:34:15;16.20;99.90
19974;DHT22;10148;47.694;9.442;2022-07-12T01:36:41;16.10;99.90
19974;DHT22;10148;47.694;9.442;2022-07-12T01:39:07;16.20;99.90
19974;DHT22;10148;47.694;9.442;2022-07-12T01:41:32;16.20;99.90
19974;DHT22;10148;47.694;9.442;2022-07-12T01:43:59;16.20;99.90
19974;DHT22;10148;47.694;9.442;2022-07-12T01:46:24;16.20;99.90
19974;DHT22;10148;47.694;9.442;2022-07-12T01:48:50;16.10;99.90
19974;DHT22;10148;47.694;9.442;2022-07-12T01:51:16;16.10;99.90
19974;DHT22;10148;47.694;9.442;2022-07-12T01:53:42;16.10;99.90
19974;DHT22;10148;47.694;9.442;2022-07-12T01:56:07;16.00;99.90
19974;DHT22;10148;47.694;9.442;2022-07-12T01:58:34;16.00;99.90
19974;DHT22;10148;47.694;9.442;2022-07-12T02:01:00;16.00;99.90
19974;DHT22;10148;47.694;9.442;2022-07-12T02:03:26;16.00;99.90
19974;DHT22;10148;47.694;9.442;2022-07-12T02:05:51;16.00;99.90
19974;DHT22;10148;47.694;9.442;2022-07-12T02:08:17;16.00;99.90
19974;DHT22;10148;47.694;9.442;2022-07-12T02:10:43;16.00;99.90
19974;DHT22;10148;47.694;9.442;2022-07-12T02:13:09;16.00;99.90
19974;DHT22;10148;47.694;9.442;2022-07-12T02:15:34;16.00;99.90
19974;DHT22;10148;47.694;9.442;2022-07-12T02:18:00;15.90;99.90
19974;DHT22;10148;47.694;9.442;2022-07-12T02:20:25;15.90;99.90
19974;DHT22;10148;47.694;9.442;2022-07-12T02:22:51;15.90;99.90
19974;DHT22;10148;47.694;9.442;2022-07-12T02:25:17;15.90;99.90
19974;DHT22;10148;47.694;9.442;2022-07-12T02:27:42;15.90;99.90
19974;DHT22;10148;47.694;9.442;2022-07-12T02:30:09;15.90;99.90
19974;DHT22;10148;47.694;9.442;2022-07-12T02:32:36;15.90;99.90
19974;DHT22;10148;47.694;9.442;2022-07-12T02:35:03;15.80;99.90
19974;DHT22;10148;47.694;9.442;2022-07-12T02:37:29;15.80;99.90
19974;DHT22;10148;47.694;9.442;2022-07-12T02:39:54;15.80;99.90
19974;DHT22;10148;47.694;9.442;2022-07-12T02:42:40;15.70;99.90
19974;DHT22;10148;47.694;9.442;2022-07-12T02:45:06;15.70;99.90
19974;DHT22;10148;47.694;9.442;2022-07-12T02:47:31;15.70;99.90
19974;DHT22;10148;47.694;9.442;2022-07-12T02:49:58;15.70;99.90
19974;DHT22;10148;47.694;9.442;2022-07-12T02:52:23;15.70;99.90
19974;DHT22;10148;47.694;9.442;2022-07-12T02:54:49;15.60;99.90
19974;DHT22;10148;47.694;9.442;2022-07-12T02:57:15;15.60;99.90
19974;DHT22;10148;47.694;9.442;2022-07-12T02:59:40;15.60;99.90
19974;DHT22;10148;47.694;9.442;2022-07-12T03:02:06;15.60;99.90
19974;DHT22;10148;47.694;9.442;2022-07-12T03:04:32;15.50;99.90
19974;DHT22;10148;47.694;9.442;2022-07-12T03:06:57;15.50;99.90
19974;DHT22;10148;47.694;9.442;2022-07-12T03:09:23;15.50;99.90
19974;DHT22;10148;47.694;9.442;2022-07-12T03:11:48;15.50;99.90
19974;DHT22;10148;47.694;9.442;2022-07-12T03:14:14;15.50;99.90
19974;DHT22;10148;47.694;9.442;2022-07-12T03:16:39;15.40;99.90
19974;DHT22;10148;47.694;9.442;2022-07-12T03:19:05;15.40;99.90
19974;DHT22;10148;47.694;9.442;2022-07-12T03:21:30;15.40;99.90
19974;DHT22;10148;47.694;9.442;2022-07-12T03:23:56;15.40;99.90
19974;DHT22;10148;47.694;9.442;2022-07-12T03:26:21;15.40;99.90
19974;DHT22;10148;47.694;9.442;2022-07-12T03:28:47;15.40;99.90
19974;DHT22;10148;47.694;9.442;2022-07-12T03:31:13;15.40;99.90
19974;DHT22;10148;47.694;9.442;2022-07-12T03:33:38;15.40;99.90
19974;DHT22;10148;47.694;9.442;2022-07-12T03:36:04;15.30;99.90
19974;DHT22;10148;47.694;9.442;2022-07-12T03:38:32;15.30;99.90
19974;DHT22;10148;47.694;9.442;2022-07-12T03:40:57;15.30;99.90
19974;DHT22;10148;47.694;9.442;2022-07-12T03:43:23;15.30;99.90
19974;DHT22;10148;47.694;9.442;2022-07-12T03:45:48;15.20;99.90
19974;DHT22;10148;47.694;9.442;2022-07-12T03:48:14;15.20;99.90
19974;DHT22;10148;47.694;9.442;2022-07-12T03:50:39;15.20;99.90
19974;DHT22;10148;47.694;9.442;2022-07-12T03:53:05;15.20;99.90
19974;DHT22;10148;47.694;9.442;2022-07-12T03:55:31;15.20;99.90
19974;DHT22;10148;47.694;9.442;2022-07-12T03:57:56;15.20;99.90
19974;DHT22;10148;47.694;9.442;2022-07-12T04:00:22;15.20;99.90
19974;DHT22;10148;47.694;9.442;2022-07-12T04:02:47;15.20;99.90
19974;DHT22;10148;47.694;9.442;2022-07-12T04:05:13;15.20;99.90
19974;DHT22;10148;47.694;9.442;2022-07-12T04:07:39;15.30;99.90
19974;DHT22;10148;47.694;9.442;2022-07-12T04:10:06;15.30;99.90
19974;DHT22;10148;47.694;9.442;2022-07-12T04:12:32;15.30;99.90
19974;DHT22;10148;47.694;9.442;2022-07-12T04:14:57;15.30;99.90
19974;DHT22;10148;47.694;9.442;2022-07-12T04:17:23;15.30;99.90
19974;DHT22;10148;47.694;9.442;2022-07-12T04:19:49;15.40;99.90
19974;DHT22;10148;47.694;9.442;2022-07-12T04:22:14;15.40;99.90
19974;DHT22;10148;47.694;9.442;2022-07-12T04:24:40;15.40;99.90
19974;DHT22;10148;47.694;9.442;2022-07-12T04:27:05;15.40;99.90
19974;DHT22;10148;47.694;9.442;2022-07-12T04:29:31;15.40;99.90
19974;DHT22;10148;47.694;9.442;2022-07-12T04:31:56;15.50;99.90
19974;DHT22;10148;47.694;9.442;2022-07-12T04:34:22;15.50;99.90
19974;DHT22;10148;47.694;9.442;2022-07-12T04:36:48;15.50;99.90
19974;DHT22;10148;47.694;9.442;2022-07-12T04:39:14;15.60;99.90
19974;DHT22;10148;47.694;9.442;2022-07-12T04:41:40;15.60;99.90
19974;DHT22;10148;47.694;9.442;2022-07-12T04:44:06;15.70;99.90
19974;DHT22;10148;47.694;9.442;2022-07-12T04:46:32;15.80;99.90
19974;DHT22;10148;47.694;9.442;2022-07-12T04:48:58;15.80;99.90
19974;DHT22;10148;47.694;9.442;2022-07-12T04:51:23;15.80;99.90
19974;DHT22;10148;47.694;9.442;2022-07-12T04:53:49;15.80;99.90
19974;DHT22;10148;47.694;9.442;2022-07-12T04:56:14;15.70;99.90
19974;DHT22;10148;47.694;9.442;2022-07-12T04:58:40;15.70;99.90
19974;DHT22;10148;47.694;9.442;2022-07-12T05:01:05;15.70;99.90
19974;DHT22;10148;47.694;9.442;2022-07-12T05:03:32;15.60;99.90
19974;DHT22;10148;47.694;9.442;2022-07-12T05:05:58;15.70;99.90
19974;DHT22;10148;47.694;9.442;2022-07-12T05:08:23;15.70;99.90
19974;DHT22;10148;47.694;9.442;2022-07-12T05:10:49;15.70;99.90
19974;DHT22;10148;47.694;9.442;2022-07-12T05:13:15;15.70;99.90
19974;DHT22;10148;47.694;9.442;2022-07-12T05:15:40;15.80;99.90
19974;DHT22;10148;47.694;9.442;2022-07-12T05:18:06;15.90;99.90
19974;DHT22;10148;47.694;9.442;2022-07-12T05:20:31;15.90;99.90
19974;DHT22;10148;47.694;9.442;2022-07-12T05:22:57;16.00;99.90
19974;DHT22;10148;47.694;9.442;2022-07-12T05:25:22;16.00;99.90
19974;DHT22;10148;47.694;9.442;2022-07-12T05:27:48;16.10;99.90
19974;DHT22;10148;47.694;9.442;2022-07-12T05:30:13;16.10;99.90
19974;DHT22;10148;47.694;9.442;2022-07-12T05:32:39;16.10;99.90
19974;DHT22;10148;47.694;9.442;2022-07-12T05:35:05;16.30;99.90
19974;DHT22;10148;47.694;9.442;2022-07-12T05:37:31;16.30;99.90
19974;DHT22;10148;47.694;9.442;2022-07-12T05:39:57;16.50;99.90
19974;DHT22;10148;47.694;9.442;2022-07-12T05:42:22;16.60;99.90
19974;DHT22;10148;47.694;9.442;2022-07-12T05:44:48;16.70;99.90
19974;DHT22;10148;47.694;9.442;2022-07-12T05:47:13;16.70;99.90
19974;DHT22;10148;47.694;9.442;2022-07-12T05:49:39;16.70;99.90
19974;DHT22;10148;47.694;9.442;2022-07-12T05:52:04;16.70;99.90
19974;DHT22;10148;47.694;9.442;2022-07-12T05:54:48;16.70;99.90
19974;DHT22;10148;47.694;9.442;2022-07-12T05:57:15;16.70;99.90
19974;DHT22;10148;47.694;9.442;2022-07-12T05:59:42;16.70;99.90
19974;DHT22;10148;47.694;9.442;2022-07-12T06:02:08;16.80;99.90
19974;DHT22;10148;47.694;9.442;2022-07-12T06:04:35;17.00;99.90
19974;DHT22;10148;47.694;9.442;2022-07-12T06:07:00;17.10;99.90
19974;DHT22;10148;47.694;9.442;2022-07-12T06:09:26;17.20;99.90
19974;DHT22;10148;47.694;9.442;2022-07-12T06:11:51;17.30;99.90
19974;DHT22;10148;47.694;9.442;2022-07-12T06:14:17;17.40;99.90
19974;DHT22;10148;47.694;9.442;2022-07-12T06:16:43;17.40;99.90
19974;DHT22;10148;47.694;9.442;2022-07-12T06:19:09;17.60;99.90
19974;DHT22;10148;47.694;9.442;2022-07-12T06:21:34;17.70;99.90
19974;DHT22;10148;47.694;9.442;2022-07-12T06:24:00;17.80;99.90
19974;DHT22;10148;47.694;9.442;2022-07-12T06:26:25;17.90;99.90
19974;DHT22;10148;47.694;9.442;2022-07-12T06:28:51;18.00;99.90
19974;DHT22;10148;47.694;9.442;2022-07-12T06:31:17;18.00;99.90
19974;DHT22;10148;47.694;9.442;2022-07-12T06:33:43;18.10;99.90
19974;DHT22;10148;47.694;9.442;2022-07-12T06:36:08;18.10;99.90
19974;DHT22;10148;47.694;9.442;2022-07-12T06:38:34;18.20;99.90
19974;DHT22;10148;47.694;9.442;2022-07-12T06:40:59;18.40;99.90
19974;DHT22;10148;47.694;9.442;2022-07-12T06:43:25;18.40;99.90
19974;DHT22;10148;47.694;9.442;2022-07-12T06:45:51;18.50;99.90
19974;DHT22;10148;47.694;9.442;2022-07-12T06:48:16;18.50;99.90
19974;DHT22;10148;47.694;9.442;2022-07-12T06:50:42;18.60;99.90
19974;DHT22;10148;47.694;9.442;2022-07-12T06:53:11;18.70;99.90
19974;DHT22;10148;47.694;9.442;2022-07-12T06:55:37;18.70;99.90
19974;DHT22;10148;47.694;9.442;2022-07-12T06:58:02;18.70;99.90
19974;DHT22;10148;47.694;9.442;2022-07-12T07:00:28;18.70;99.90
19974;DHT22;10148;47.694;9.442;2022-07-12T07:02:54;18.80;99.90
19974;DHT22;10148;47.694;9.442;2022-07-12T07:05:19;18.90;99.90
19974;DHT22;10148;47.694;9.442;2022-07-12T07:07:45;18.90;99.90
19974;DHT22;10148;47.694;9.442;2022-07-12T07:10:10;19.10;99.90
19974;DHT22;10148;47.694;9.442;2022-07-12T07:12:36;19.20;99.90
19974;DHT22;10148;47.694;9.442;2022-07-12T07:15:02;19.30;99.90
19974;DHT22;10148;47.694;9.442;2022-07-12T07:17:28;19.50;99.90
19974;DHT22;10148;47.694;9.442;2022-07-12T07:19:53;19.50;99.90
19974;DHT22;10148;47.694;9.442;2022-07-12T07:22:19;19.60;99.90
19974;DHT22;10148;47.694;9.442;2022-07-12T07:24:45;19.70;99.90
19974;DHT22;10148;47.694;9.442;2022-07-12T07:27:11;19.80;99.90
19974;DHT22;10148;47.694;9.442;2022-07-12T07:29:37;20.00;99.90
19974;DHT22;10148;47.694;9.442;2022-07-12T07:32:21;20.10;99.90
19974;DHT22;10148;47.694;9.442;2022-07-12T07:34:47;20.20;99.90
19974;DHT22;10148;47.694;9.442;2022-07-12T07:37:13;20.30;99.90
19974;DHT22;10148;47.694;9.442;2022-07-12T07:39:39;20.40;99.90
19974;DHT22;10148;47.694;9.442;2022-07-12T07:42:05;20.50;99.90
19974;DHT22;10148;47.694;9.442;2022-07-12T07:44:31;20.60;99.90
19974;DHT22;10148;47.694;9.442;2022-07-12T07:46:56;20.70;99.90
19974;DHT22;10148;47.694;9.442;2022-07-12T07:49:22;20.80;99.90
19974;DHT22;10148;47.694;9.442;2022-07-12T07:51:47;20.80;99.90
19974;DHT22;10148;47.694;9.442;2022-07-12T07:54:13;20.90;99.90
19974;DHT22;10148;47.694;9.442;2022-07-12T07:56:38;20.90;99.90
19974;DHT22;10148;47.694;9.442;2022-07-12T07:59:04;20.90;99.90
19974;DHT22;10148;47.694;9.442;2022-07-12T08:01:29;21.00;99.90
19974;DHT22;10148;47.694;9.442;2022-07-12T08:04:09;21.00;99.90
19974;DHT22;10148;47.694;9.442;2022-07-12T08:06:35;20.90;99.90
19974;DHT22;10148;47.694;9.442;2022-07-12T08:09:01;21.00;99.90
19974;DHT22;10148;47.694;9.442;2022-07-12T08:11:26;21.20;99.90
19974;DHT22;10148;47.694;9.442;2022-07-12T08:13:52;21.20;99.90
19974;DHT22;10148;47.694;9.442;2022-07-12T08:16:17;21.30;99.90
19974;DHT22;10148;47.694;9.442;2022-07-12T08:18:43;21.30;99.90
19974;DHT22;10148;47.694;9.442;2022-07-12T08:21:08;21.50;99.90
19974;DHT22;10148;47.694;9.442;2022-07-12T08:23:34;21.60;99.90
19974;DHT22;10148;47.694;9.442;2022-07-12T08:25:59;21.70;99.90
19974;DHT22;10148;47.694;9.442;2022-07-12T08:28:25;21.70;99.90
19974;DHT22;10148;47.694;9.442;2022-07-12T08:30:50;21.80;99.90
19974;DHT22;10148;47.694;9.442;2022-07-12T08:33:16;22.00;99.90
19974;DHT22;10148;47.694;9.442;2022-07-12T08:35:42;22.00;99.90
19974;DHT22;10148;47.694;9.442;2022-07-12T08:38:08;22.10;99.90
19974;DHT22;10148;47.694;9.442;2022-07-12T08:40:35;22.10;99.90
19974;DHT22;10148;47.694;9.442;2022-07-12T08:43:01;22.10;99.90
19974;DHT22;10148;47.694;9.442;2022-07-12T08:45:27;22.10;99.90
19974;DHT22;10148;47.694;9.442;2022-07-12T08:47:52;22.10;99.90
19974;DHT22;10148;47.694;9.442;2022-07-12T08:50:19;22.40;99.90
19974;DHT22;10148;47.694;9.442;2022-07-12T08:52:46;22.50;99.90
19974;DHT22;10148;47.694;9.442;2022-07-12T08:55:20;22.50;99.90
19974;DHT22;10148;47.694;9.442;2022-07-12T08:57:47;22.50;99.90
19974;DHT22;10148;47.694;9.442;2022-07-12T09:00:14;22.50;99.90
19974;DHT22;10148;47.694;9.442;2022-07-12T09:02:48;22.50;99.90
19974;DHT22;10148;47.694;9.442;2022-07-12T09:05:15;22.40;99.90
19974;DHT22;10148;47.694;9.442;2022-07-12T09:07:41;22.40;99.90
19974;DHT22;10148;47.694;9.442;2022-07-12T09:10:08;22.30;99.90
19974;DHT22;10148;47.694;9.442;2022-07-12T09:12:34;22.40;99.90
19974;DHT22;10148;47.694;9.442;2022-07-12T09:17:40;22.40;99.90
19974;DHT22;10148;47.694;9.442;2022-07-12T09:20:09;22.70;99.90
19974;DHT22;10148;47.694;9.442;2022-07-12T09:22:35;22.80;99.90
19974;DHT22;10148;47.694;9.442;2022-07-12T09:25:16;23.10;99.90
19974;DHT22;10148;47.694;9.442;2022-07-12T09:28:07;23.20;99.90
19974;DHT22;10148;47.694;9.442;2022-07-12T09:30:34;23.40;99.90
19974;DHT22;10148;47.694;9.442;2022-07-12T09:33:06;23.40;99.90
19974;DHT22;10148;47.694;9.442;2022-07-12T09:35:59;23.50;99.90
19974;DHT22;10148;47.694;9.442;2022-07-12T09:38:39;23.50;99.90
19974;DHT22;10148;47.694;9.442;2022-07-12T09:41:06;23.40;99.90
19974;DHT22;10148;47.694;9.442;2022-07-12T09:43:31;23.20;99.90
19974;DHT22;10148;47.694;9.442;2022-07-12T09:45:58;23.30;99.90
19974;DHT22;10148;47.694;9.442;2022-07-12T09:48:26;23.40;99.90
19974;DHT22;10148;47.694;9.442;2022-07-12T09:50:54;23.60;99.90
19974;DHT22;10148;47.694;9.442;2022-07-12T09:53:31;23.70;99.90
19974;DHT22;10148;47.694;9.442;2022-07-12T09:56:05;23.80;99.90
19974;DHT22;10148;47.694;9.442;2022-07-12T09:58:36;23.80;99.90
19974;DHT22;10148;47.694;9.442;2022-07-12T10:01:06;23.80;99.90
19974;DHT22;10148;47.694;9.442;2022-07-12T10:03:33;23.60;99.90
19974;DHT22;10148;47.694;9.442;2022-07-12T10:06:01;23.60;99.90
19974;DHT22;10148;47.694;9.442;2022-07-12T10:08:28;23.50;99.90
19974;DHT22;10148;47.694;9.442;2022-07-12T10:10:54;23.60;99.90
19974;DHT22;10148;47.694;9.442;2022-07-12T10:13:20;23.70;99.90
19974;DHT22;10148;47.694;9.442;2022-07-12T10:15:47;23.70;99.90
19974;DHT22;10148;47.694;9.442;2022-07-12T10:18:20;23.80;99.90
19974;DHT22;10148;47.694;9.442;2022-07-12T10:20:49;23.90;99.90
19974;DHT22;10148;47.694;9.442;2022-07-12T10:23:33;24.00;99.90
19974;DHT22;10148;47.694;9.442;2022-07-12T10:26:01;24.10;99.90
19974;DHT22;10148;47.694;9.442;2022-07-12T10:28:56;24.20;99.90
19974;DHT22;10148;47.694;9.442;2022-07-12T10:31:24;24.00;99.90
19974;DHT22;10148;47.694;9.442;2022-07-12T10:34:13;24.10;99.90
19974;DHT22;10148;47.694;9.442;2022-07-12T10:39:26;24.20;99.90
19974;DHT22;10148;47.694;9.442;2022-07-12T10:42:18;24.30;99.90
19974;DHT22;10148;47.694;9.442;2022-07-12T10:44:46;24.60;99.90
19974;DHT22;10148;47.694;9.442;2022-07-12T10:47:13;24.80;99.90
19974;DHT22;10148;47.694;9.442;2022-07-12T10:49:48;25.00;99.90
19974;DHT22;10148;47.694;9.442;2022-07-12T10:52:16;25.10;99.90
19974;DHT22;10148;47.694;9.442;2022-07-12T10:57:46;24.90;99.90
19974;DHT22;10148;47.694;9.442;2022-07-12T11:00:15;24.90;99.90
19974;DHT22;10148;47.694;9.442;2022-07-12T11:02:40;24.90;99.90
19974;DHT22;10148;47.694;9.442;2022-07-12T11:05:07;25.10;99.90
19974;DHT22;10148;47.694;9.442;2022-07-12T11:07:34;25.20;99.90
19974;DHT22;10148;47.694;9.442;2022-07-12T11:09:59;25.40;99.90
19974;DHT22;10148;47.694;9.442;2022-07-12T11:12:29;25.60;99.90
19974;DHT22;10148;47.694;9.442;2022-07-12T11:14:55;25.70;99.90
19974;DHT22;10148;47.694;9.442;2022-07-12T11:17:25;25.80;99.90
19974;DHT22;10148;47.694;9.442;2022-07-12T11:20:06;26.00;99.90
19974;DHT22;10148;47.694;9.442;2022-07-12T11:22:32;26.00;99.90
19974;DHT22;10148;47.694;9.442;2022-07-12T11:24:59;26.00;99.90
19974;DHT22;10148;47.694;9.442;2022-07-12T11:27:28;26.10;99.90
19974;DHT22;10148;47.694;9.442;2022-07-12T11:29:58;26.30;99.90
19974;DHT22;10148;47.694;9.442;2022-07-12T11:32:34;26.10;99.90
19974;DHT22;10148;47.694;9.442;2022-07-12T11:35:00;26.30;99.90
19974;DHT22;10148;47.694;9.442;2022-07-12T11:37:25;26.30;99.90
19974;DHT22;10148;47.694;9.442;2022-07-12T11:39:51;26.60;99.90
19974;DHT22;10148;47.694;9.442;2022-07-12T11:42:16;26.80;99.90
19974;DHT22;10148;47.694;9.442;2022-07-12T11:44:47;26.80;99.90
19974;DHT22;10148;47.694;9.442;2022-07-12T11:47:14;26.80;99.90
19974;DHT22;10148;47.694;9.442;2022-07-12T11:49:48;26.90;99.90
19974;DHT22;10148;47.694;9.442;2022-07-12T11:52:19;26.90;99.90
19974;DHT22;10148;47.694;9.442;2022-07-12T11:54:46;26.90;99.90
19974;DHT22;10148;47.694;9.442;2022-07-12T11:57:12;26.80;99.90
19974;DHT22;10148;47.694;9.442;2022-07-12T11:59:38;26.80;99.90
19974;DHT22;10148;47.694;9.442;2022-07-12T12:02:09;26.80;99.90
19974;DHT22;10148;47.694;9.442;2022-07-12T12:04:49;27.00;99.90
19974;DHT22;10148;47.694;9.442;2022-07-12T12:07:16;27.00;99.90
19974;DHT22;10148;47.694;9.442;2022-07-12T12:10:11;27.10;99.90
19974;DHT22;10148;47.694;9.442;2022-07-12T12:12:53;27.20;99.90
19974;DHT22;10148;47.694;9.442;2022-07-12T12:15:22;27.20;99.90
19974;DHT22;10148;47.694;9.442;2022-07-12T12:17:54;27.30;99.90
19974;DHT22;10148;47.694;9.442;2022-07-12T12:20:22;27.30;99.90
19974;DHT22;10148;47.694;9.442;2022-07-12T12:22:50;27.40;99.90
19974;DHT22;10148;47.694;9.442;2022-07-12T12:25:15;27.60;99.90
19974;DHT22;10148;47.694;9.442;2022-07-12T12:27:49;27.60;99.90
19974;DHT22;10148;47.694;9.442;2022-07-12T12:30:17;27.80;99.90
19974;DHT22;10148;47.694;9.442;2022-07-12T12:32:47;27.70;99.90
19974;DHT22;10148;47.694;9.442;2022-07-12T12:35:14;27.80;99.90
19974;DHT22;10148;47.694;9.442;2022-07-12T12:37:47;27.90;99.90
19974;DHT22;10148;47.694;9.442;2022-07-12T12:40:18;28.10;99.90
19974;DHT22;10148;47.694;9.442;2022-07-12T12:42:43;28.20;99.90
19974;DHT22;10148;47.694;9.442;2022-07-12T12:45:25;28.20;99.90
19974;DHT22;10148;47.694;9.442;2022-07-12T12:47:56;28.40;99.90
19974;DHT22;10148;47.694;9.442;2022-07-12T12:50:41;28.50;99.90
19974;DHT22;10148;47.694;9.442;2022-07-12T12:53:15;28.40;99.90
19974;DHT22;10148;47.694;9.442;2022-07-12T12:55:42;28.30;99.90
19974;DHT22;10148;47.694;9.442;2022-07-12T12:58:08;28.50;99.90
19974;DHT22;10148;47.694;9.442;2022-07-12T13:00:36;28.80;99.90
19974;DHT22;10148;47.694;9.442;2022-07-12T13:03:04;29.00;99.90
19974;DHT22;10148;47.694;9.442;2022-07-12T13:05:29;29.10;99.90
19974;DHT22;10148;47.694;9.442;2022-07-12T13:07:56;29.20;99.90
19974;DHT22;10148;47.694;9.442;2022-07-12T13:10:22;29.10;99.90
19974;DHT22;10148;47.694;9.442;2022-07-12T13:12:48;28.90;99.90
19974;DHT22;10148;47.694;9.442;2022-07-12T13:15:14;28.90;99.90
19974;DHT22;10148;47.694;9.442;2022-07-12T13:17:40;29.20;99.90
19974;DHT22;10148;47.694;9.442;2022-07-12T13:20:06;29.50;99.90
19974;DHT22;10148;47.694;9.442;2022-07-12T13:22:34;29.70;99.90
19974;DHT22;10148;47.694;9.442;2022-07-12T13:25:00;29.80;99.90
19974;DHT22;10148;47.694;9.442;2022-07-12T13:27:27;29.80;99.90
19974;DHT22;10148;47.694;9.442;2022-07-12T13:29:53;29.60;99.90
19974;DHT22;10148;47.694;9.442;2022-07-12T13:32:18;29.80;99.90
19974;DHT22;10148;47.694;9.442;2022-07-12T13:34:47;29.90;99.90
19974;DHT22;10148;47.694;9.442;2022-07-12T13:37:13;29.90;99.90
19974;DHT22;10148;47.694;9.442;2022-07-12T13:39:39;29.60;99.90
19974;DHT22;10148;47.694;9.442;2022-07-12T13:42:23;29.80;99.90
19974;DHT22;10148;47.694;9.442;2022-07-12T13:44:50;30.10;99.30
19974;DHT22;10148;47.694;9.442;2022-07-12T13:47:16;30.10;96.70
19974;DHT22;10148;47.694;9.442;2022-07-12T13:49:41;30.10;96.10
19974;DHT22;10148;47.694;9.442;2022-07-12T13:52:07;30.30;97.70
19974;DHT22;10148;47.694;9.442;2022-07-12T13:54:33;30.30;96.70
19974;DHT22;10148;47.694;9.442;2022-07-12T13:56:59;30.20;96.90
19974;DHT22;10148;47.694;9.442;2022-07-12T13:59:24;30.20;95.50
19974;DHT22;10148;47.694;9.442;2022-07-12T14:01:50;30.20;96.80
19974;DHT22;10148;47.694;9.442;2022-07-12T14:04:16;30.30;95.20
19974;DHT22;10148;47.694;9.442;2022-07-12T14:06:41;29.80;96.40
19974;DHT22;10148;47.694;9.442;2022-07-12T14:09:07;29.80;95.90
19974;DHT22;10148;47.694;9.442;2022-07-12T14:11:32;29.40;94.20
19974;DHT22;10148;47.694;9.442;2022-07-12T14:13:59;29.10;95.80
19974;DHT22;10148;47.694;9.442;2022-07-12T14:16:25;29.30;96.20
19974;DHT22;10148;47.694;9.442;2022-07-12T14:18:50;29.60;96.10
19974;DHT22;10148;47.694;9.442;2022-07-12T14:21:16;29.80;94.90
19974;DHT22;10148;47.694;9.442;2022-07-12T14:23:41;30.20;95.20
19974;DHT22;10148;47.694;9.442;2022-07-12T14:26:07;30.50;95.50
19974;DHT22;10148;47.694;9.442;2022-07-12T14:28:33;30.70;94.80
19974;DHT22;10148;47.694;9.442;2022-07-12T14:31:06;30.70;95.40
19974;DHT22;10148;47.694;9.442;2022-07-12T14:33:35;30.50;93.90
19974;DHT22;10148;47.694;9.442;2022-07-12T14:36:01;30.40;93.80
19974;DHT22;10148;47.694;9.442;2022-07-12T14:38:26;30.60;94.80
19974;DHT22;10148;47.694;9.442;2022-07-12T14:40:52;30.90;93.20
19974;DHT22;10148;47.694;9.442;2022-07-12T14:43:18;30.80;92.10
19974;DHT22;10148;47.694;9.442;2022-07-12T14:45:45;31.00;92.50
19974;DHT22;10148;47.694;9.442;2022-07-12T14:48:11;30.80;92.10
19974;DHT22;10148;47.694;9.442;2022-07-12T14:50:38;30.80;92.80
19974;DHT22;10148;47.694;9.442;2022-07-12T14:53:03;30.80;92.60
19974;DHT22;10148;47.694;9.442;2022-07-12T14:55:29;30.80;91.80
19974;DHT22;10148;47.694;9.442;2022-07-12T14:57:54;31.10;92.70
19974;DHT22;10148;47.694;9.442;2022-07-12T15:00:20;31.20;90.80
19974;DHT22;10148;47.694;9.442;2022-07-12T15:02:47;31.50;89.60
19974;DHT22;10148;47.694;9.442;2022-07-12T15:05:12;31.40;88.30
19974;DHT22;10148;47.694;9.442;2022-07-12T15:07:38;31.50;90.00
19974;DHT22;10148;47.694;9.442;2022-07-12T15:10:04;31.50;88.60
19974;DHT22;10148;47.694;9.442;2022-07-12T15:12:31;31.40;89.30
19974;DHT22;10148;47.694;9.442;2022-07-12T15:14:57;31.40;89.70
19974;DHT22;10148;47.694;9.442;2022-07-12T15:17:23;31.30;90.80
19974;DHT22;10148;47.694;9.442;2022-07-12T15:19:49;31.50;90.20
19974;DHT22;10148;47.694;9.442;2022-07-12T15:22:15;31.60;90.40
19974;DHT22;10148;47.694;9.442;2022-07-12T15:24:41;31.70;91.50
19974;DHT22;10148;47.694;9.442;2022-07-12T15:27:07;31.70;90.60
19974;DHT22;10148;47.694;9.442;2022-07-12T15:29:34;31.80;90.10
19974;DHT22;10148;47.694;9.442;2022-07-12T15:32:00;31.90;90.90
19974;DHT22;10148;47.694;9.442;2022-07-12T15:34:26;31.90;89.90
19974;DHT22;10148;47.694;9.442;2022-07-12T15:36:51;31.80;90.50
19974;DHT22;10148;47.694;9.442;2022-07-12T15:39:17;31.90;91.00